createdAt,value
2018-11-26T00:00:24.104Z,5.40
2018-11-26T00:02:52.545Z,5.40
2018-11-26T00:05:20.939Z,5.40
2018-11-26T00:07:49.348Z,5.40
2018-11-26T00:10:28.892Z,5.40
2018-11-26T00:12:57.302Z,5.40
2018-11-26T00:15:25.712Z,5.40
2018-11-26T00:17:54.257Z,5.40
2018-11-26T00:20:22.645Z,5.40
2018-11-26T00:22:51.028Z,5.40
2018-11-26T00:25:19.423Z,5.40
2018-11-26T00:27:47.795Z,5.50
2018-11-26T00:30:16.191Z,5.40
2018-11-26T00:32:44.579Z,5.40
2018-11-26T00:35:12.984Z,5.40
2018-11-26T00:37:41.362Z,5.50
2018-11-26T00:40:10.957Z,5.40
2018-11-26T00:42:39.368Z,5.40
2018-11-26T00:45:09.987Z,5.50
2018-11-26T00:47:38.320Z,5.40
2018-11-26T00:50:08.229Z,5.40
2018-11-26T00:52:36.628Z,5.40
2018-11-26T00:55:05.668Z,5.40
2018-11-26T00:57:34.066Z,5.50
2018-11-26T01:00:02.443Z,5.50
2018-11-26T01:02:30.882Z,5.40
2018-11-26T01:04:59.252Z,5.40
2018-11-26T01:07:27.671Z,5.50
2018-11-26T01:09:56.052Z,5.50
2018-11-26T01:12:24.517Z,5.50
2018-11-26T01:14:52.997Z,5.40
2018-11-26T01:17:21.692Z,5.50
2018-11-26T01:19:50.114Z,5.50
2018-11-26T01:22:18.524Z,5.50
2018-11-26T01:24:46.898Z,5.50
2018-11-26T01:27:15.316Z,5.60
2018-11-26T01:29:43.744Z,5.50
2018-11-26T01:32:12.186Z,5.50
2018-11-26T01:34:40.512Z,5.60
2018-11-26T01:37:08.888Z,5.70
2018-11-26T01:39:37.272Z,5.50
2018-11-26T01:42:05.645Z,5.50
2018-11-26T01:44:34.031Z,5.50
2018-11-26T01:47:02.483Z,5.40
2018-11-26T01:49:30.849Z,5.40
2018-11-26T01:51:59.191Z,5.40
2018-11-26T01:54:27.571Z,5.30
2018-11-26T01:56:56.009Z,5.30
2018-11-26T01:59:24.449Z,5.20
2018-11-26T02:01:52.879Z,5.10
2018-11-26T02:04:21.383Z,5.20
2018-11-26T02:06:49.781Z,5.10
2018-11-26T02:09:18.181Z,5.10
2018-11-26T02:11:46.605Z,5.20
2018-11-26T02:14:15.010Z,5.10
2018-11-26T02:16:43.610Z,5.10
2018-11-26T02:19:11.990Z,5.00
2018-11-26T02:21:40.467Z,5.00
2018-11-26T02:24:08.849Z,5.00
2018-11-26T02:26:37.229Z,5.00
2018-11-26T02:29:06.097Z,4.90
2018-11-26T02:31:34.495Z,4.90
2018-11-26T02:34:03.221Z,4.90
2018-11-26T02:36:31.672Z,4.90
2018-11-26T02:39:00.136Z,4.90
2018-11-26T02:41:28.483Z,4.90
2018-11-26T02:43:56.855Z,4.90
2018-11-26T02:46:25.268Z,4.90
2018-11-26T02:48:53.687Z,4.90
2018-11-26T02:51:22.144Z,4.90
2018-11-26T02:53:50.539Z,4.90
2018-11-26T02:56:18.929Z,4.90
2018-11-26T02:58:47.569Z,4.90
2018-11-26T03:01:15.991Z,4.80
2018-11-26T03:03:44.425Z,4.80
2018-11-26T03:06:12.817Z,4.80
2018-11-26T03:08:41.244Z,4.80
2018-11-26T03:11:09.654Z,4.90
2018-11-26T03:13:38.053Z,4.90
2018-11-26T03:16:06.785Z,4.90
2018-11-26T03:18:35.140Z,4.90
2018-11-26T03:21:03.494Z,4.80
2018-11-26T03:23:31.838Z,4.80
2018-11-26T03:26:00.228Z,4.80
2018-11-26T03:28:28.760Z,4.80
2018-11-26T03:30:57.146Z,4.80
2018-11-26T03:33:25.515Z,4.80
2018-11-26T03:35:53.932Z,4.90
2018-11-26T03:38:34.157Z,4.90
2018-11-26T03:41:02.568Z,4.90
2018-11-26T03:43:30.943Z,4.90
2018-11-26T03:45:59.317Z,4.90
2018-11-26T03:48:29.885Z,4.80
2018-11-26T03:50:58.283Z,4.80
2018-11-26T03:53:26.681Z,4.70
2018-11-26T03:55:55.341Z,4.80
2018-11-26T03:58:23.767Z,4.70
2018-11-26T04:00:53.156Z,4.70
2018-11-26T04:03:21.592Z,4.80
2018-11-26T04:05:49.993Z,4.80
2018-11-26T04:08:18.482Z,4.70
2018-11-26T04:10:46.815Z,4.60
2018-11-26T04:13:15.211Z,4.60
2018-11-26T04:15:43.587Z,4.60
2018-11-26T04:18:11.921Z,4.60
2018-11-26T04:20:40.317Z,4.60
2018-11-26T04:23:08.679Z,4.60
2018-11-26T04:25:37.095Z,4.50
2018-11-26T04:28:05.756Z,4.40
2018-11-26T04:30:34.171Z,4.50
2018-11-26T04:33:02.617Z,4.50
2018-11-26T04:35:30.993Z,4.40
2018-11-26T04:37:59.610Z,4.30
2018-11-26T04:40:28.044Z,4.30
2018-11-26T04:42:56.460Z,4.30
2018-11-26T04:45:24.852Z,4.40
2018-11-26T04:47:53.255Z,4.40
2018-11-26T04:50:21.678Z,4.30
2018-11-26T04:52:50.060Z,4.30
2018-11-26T04:55:19.376Z,4.30
2018-11-26T04:57:47.766Z,4.30
2018-11-26T05:00:16.186Z,4.20
2018-11-26T05:02:44.585Z,4.20
2018-11-26T05:05:13.437Z,4.30
2018-11-26T05:07:41.834Z,4.20
2018-11-26T05:10:12.236Z,4.20
2018-11-26T05:12:40.618Z,4.30
2018-11-26T05:15:11.350Z,4.20
2018-11-26T05:17:39.752Z,4.20
2018-11-26T05:20:11.267Z,4.00
2018-11-26T05:22:39.691Z,4.00
2018-11-26T05:25:09.339Z,4.00
2018-11-26T05:27:37.734Z,4.00
2018-11-26T05:30:08.290Z,3.90
2018-11-26T05:32:36.640Z,3.90
2018-11-26T05:35:06.157Z,3.90
2018-11-26T05:37:34.490Z,3.90
2018-11-26T05:40:03.180Z,3.90
2018-11-26T05:42:31.552Z,3.90
2018-11-26T05:44:59.940Z,3.90
2018-11-26T05:47:28.372Z,3.90
2018-11-26T05:49:56.735Z,3.90
2018-11-26T05:52:25.111Z,3.90
2018-11-26T05:54:53.486Z,3.90
2018-11-26T05:57:21.871Z,4.00
2018-11-26T05:59:50.336Z,4.00
2018-11-26T06:02:18.820Z,3.90
2018-11-26T06:04:47.206Z,3.90
2018-11-26T06:07:15.689Z,3.90
2018-11-26T06:09:44.073Z,3.90
2018-11-26T06:12:12.458Z,4.00
2018-11-26T06:14:40.857Z,3.90
2018-11-26T06:17:09.570Z,3.90
2018-11-26T06:19:37.975Z,3.90
2018-11-26T06:22:06.389Z,3.90
2018-11-26T06:24:34.783Z,3.90
2018-11-26T06:27:03.193Z,3.90
2018-11-26T06:29:31.593Z,3.80
2018-11-26T06:32:00.077Z,3.90
2018-11-26T06:34:28.449Z,3.80
2018-11-26T06:36:56.891Z,3.90
2018-11-26T06:39:25.264Z,3.80
2018-11-26T06:41:53.651Z,3.80
2018-11-26T06:44:22.082Z,3.90
2018-11-26T06:46:50.515Z,3.90
2018-11-26T06:49:18.906Z,3.90
2018-11-26T06:51:47.291Z,3.80
2018-11-26T06:54:15.688Z,3.80
2018-11-26T06:56:44.104Z,3.80
2018-11-26T06:59:12.478Z,3.80
2018-11-26T07:01:40.891Z,3.80
2018-11-26T07:04:09.296Z,3.80
2018-11-26T07:06:37.722Z,3.80
2018-11-26T07:09:08.590Z,3.80
2018-11-26T07:11:36.218Z,3.80
2018-11-26T07:14:05.454Z,3.80
2018-11-26T07:16:33.835Z,3.80
2018-11-26T07:19:02.204Z,3.80
2018-11-26T07:21:30.672Z,3.90
2018-11-26T07:23:59.104Z,3.90
2018-11-26T07:26:27.552Z,3.90
2018-11-26T07:28:55.969Z,4.00
2018-11-26T07:31:24.336Z,4.00
2018-11-26T07:33:52.810Z,3.90
2018-11-26T07:36:21.155Z,4.00
2018-11-26T07:38:49.557Z,3.90
2018-11-26T07:41:17.914Z,3.70
2018-11-26T07:43:46.377Z,3.80
2018-11-26T07:46:14.757Z,3.80
2018-11-26T07:48:43.164Z,3.80
2018-11-26T07:51:11.573Z,3.80
2018-11-26T07:53:39.958Z,3.80
2018-11-26T07:56:08.387Z,3.80
2018-11-26T07:58:37.077Z,3.90
2018-11-26T08:01:06.021Z,3.80
2018-11-26T08:03:34.819Z,3.60
2018-11-26T08:06:08.763Z,3.50
2018-11-26T08:08:31.729Z,3.50
2018-11-26T08:11:00.112Z,3.50
2018-11-26T08:13:28.495Z,3.40
2018-11-26T08:15:56.915Z,3.40
2018-11-26T08:18:25.329Z,3.40
2018-11-26T08:20:53.733Z,3.30
2018-11-26T08:23:22.167Z,3.30
2018-11-26T08:25:50.574Z,3.30
2018-11-26T08:28:19.157Z,3.30
2018-11-26T08:30:47.530Z,3.30
2018-11-26T08:33:15.883Z,3.30
2018-11-26T08:35:44.393Z,3.20
2018-11-26T08:38:18.811Z,3.10
2018-11-26T08:40:53.403Z,3.10
2018-11-26T08:43:27.169Z,3.10
2018-11-26T08:46:00.806Z,3.10
2018-11-26T08:48:29.988Z,3.10
2018-11-26T08:50:59.523Z,3.10
2018-11-26T08:53:27.971Z,3.10
2018-11-26T08:55:56.459Z,3.10
2018-11-26T08:58:24.873Z,3.10
2018-11-26T09:00:59.426Z,3.20
2018-11-26T09:03:33.084Z,3.20
2018-11-26T09:06:05.107Z,3.10
2018-11-26T09:08:34.610Z,3.00
2018-11-26T09:11:03.624Z,3.10
2018-11-26T09:13:32.232Z,3.00
2018-11-26T09:16:00.684Z,3.10
2018-11-26T09:18:29.058Z,3.10
2018-11-26T09:20:57.515Z,3.20
2018-11-26T09:23:25.912Z,3.10
2018-11-26T09:25:54.474Z,3.10
2018-11-26T09:28:22.968Z,3.10
2018-11-26T09:30:51.437Z,3.10
2018-11-26T09:33:19.897Z,3.10
2018-11-26T09:35:50.172Z,3.10
2018-11-26T09:38:18.828Z,3.10
2018-11-26T09:40:47.252Z,3.10
2018-11-26T09:43:15.692Z,3.10
2018-11-26T09:45:44.096Z,3.20
2018-11-26T09:48:12.697Z,3.20
2018-11-26T09:50:41.121Z,3.20
2018-11-26T09:53:09.637Z,3.30
2018-11-26T09:55:38.042Z,3.30
2018-11-26T09:58:06.465Z,3.30
2018-11-26T10:00:34.934Z,3.30
2018-11-26T10:03:03.369Z,3.30
2018-11-26T10:05:32.451Z,3.50
2018-11-26T10:08:00.950Z,3.40
2018-11-26T10:10:29.381Z,3.40
2018-11-26T10:12:57.786Z,3.50
2018-11-26T10:15:27.098Z,3.50
2018-11-26T10:17:55.580Z,3.50
2018-11-26T10:20:24.050Z,3.50
2018-11-26T10:22:53.179Z,3.60
2018-11-26T10:25:22.357Z,3.60
2018-11-26T10:27:50.769Z,3.70
2018-11-26T10:30:20.657Z,3.60
2018-11-26T10:32:50.015Z,3.70
2018-11-26T10:35:19.155Z,3.70
2018-11-26T10:37:47.645Z,3.70
2018-11-26T10:40:17.181Z,3.70
2018-11-26T10:42:45.701Z,3.80
2018-11-26T10:45:16.354Z,3.80
2018-11-26T10:47:44.760Z,3.80
2018-11-26T10:50:15.131Z,3.80
2018-11-26T10:52:44.836Z,3.80
2018-11-26T10:55:15.793Z,3.90
2018-11-26T10:57:44.307Z,3.80
2018-11-26T11:00:19.129Z,3.80
2018-11-26T11:02:51.085Z,3.90
2018-11-26T11:05:19.518Z,3.90
2018-11-26T11:07:47.938Z,3.90
2018-11-26T11:10:17.785Z,3.90
2018-11-26T11:12:46.153Z,3.90
2018-11-26T11:15:14.554Z,3.80
2018-11-26T11:17:43.706Z,3.80
2018-11-26T11:20:29.573Z,3.80
2018-11-26T11:22:58.026Z,3.90
2018-11-26T11:25:26.491Z,4.00
2018-11-26T11:27:56.325Z,4.00
2018-11-26T11:30:26.041Z,3.90
2018-11-26T11:32:54.561Z,4.00
2018-11-26T11:35:23.019Z,3.80
2018-11-26T11:37:52.371Z,3.80
2018-11-26T11:40:22.870Z,3.90
2018-11-26T11:42:51.386Z,3.80
2018-11-26T11:45:20.030Z,3.70
2018-11-26T11:47:48.737Z,3.60
2018-11-26T11:50:18.963Z,3.60
2018-11-26T11:52:47.619Z,3.80
2018-11-26T11:55:18.994Z,3.70
2018-11-26T11:57:47.451Z,3.70
2018-11-26T12:00:19.601Z,3.70
2018-11-26T12:02:47.984Z,3.50
2018-11-26T12:05:16.469Z,3.50
2018-11-26T12:07:45.520Z,3.50
2018-11-26T12:10:14.203Z,3.40
2018-11-26T12:12:42.691Z,3.50
2018-11-26T12:15:13.388Z,3.70
2018-11-26T12:17:42.245Z,3.70
2018-11-26T12:20:12.669Z,3.80
2018-11-26T12:22:41.627Z,3.80
2018-11-26T12:25:18.943Z,3.80
2018-11-26T12:27:47.413Z,3.90
2018-11-26T12:30:18.031Z,3.80
2018-11-26T12:32:46.441Z,3.80
2018-11-26T12:35:14.834Z,3.70
2018-11-26T12:37:43.311Z,3.80
2018-11-26T12:40:12.895Z,3.80
2018-11-26T12:42:41.329Z,3.90
2018-11-26T12:45:19.468Z,3.80
2018-11-26T12:47:47.922Z,3.90
2018-11-26T12:50:16.387Z,3.90
2018-11-26T12:52:44.815Z,3.80
2018-11-26T12:55:14.407Z,3.80
2018-11-26T12:57:43.706Z,3.90
2018-11-26T13:00:15.140Z,3.90
2018-11-26T13:02:44.138Z,3.80
2018-11-26T13:05:14.801Z,3.80
2018-11-26T13:07:43.299Z,3.80
2018-11-26T13:10:14.516Z,3.70
2018-11-26T13:12:43.078Z,3.90
2018-11-26T13:15:13.629Z,3.90
2018-11-26T13:17:42.099Z,3.80
2018-11-26T13:20:19.969Z,3.90
2018-11-26T13:22:49.196Z,3.80
2018-11-26T13:25:19.931Z,3.80
2018-11-26T13:27:51.457Z,3.90
2018-11-26T13:30:23.017Z,4.00
2018-11-26T13:32:53.697Z,4.10
2018-11-26T13:35:23.116Z,4.10
2018-11-26T13:37:51.523Z,4.10
2018-11-26T13:40:20.486Z,4.10
2018-11-26T13:42:49.230Z,4.20
2018-11-26T13:45:22.001Z,4.10
2018-11-26T13:47:50.457Z,4.20
2018-11-26T13:50:23.207Z,4.10
2018-11-26T13:52:51.647Z,4.00
2018-11-26T13:55:20.100Z,4.10
2018-11-26T13:57:48.512Z,4.20
2018-11-26T14:00:17.478Z,4.10
2018-11-26T14:02:45.923Z,4.00
2018-11-26T14:05:16.625Z,4.10
2018-11-26T14:07:45.616Z,4.00
2018-11-26T14:10:15.438Z,3.90
2018-11-26T14:12:44.546Z,3.90
2018-11-26T14:15:14.222Z,3.90
2018-11-26T14:17:42.629Z,3.90
2018-11-26T14:20:12.236Z,3.90
2018-11-26T14:22:41.630Z,3.90
2018-11-26T14:25:13.256Z,3.90
2018-11-26T14:27:42.107Z,3.90
2018-11-26T14:30:17.072Z,4.10
2018-11-26T14:32:45.457Z,4.00
2018-11-26T14:35:13.907Z,4.10
2018-11-26T14:37:42.543Z,4.10
2018-11-26T14:40:12.509Z,4.00
2018-11-26T14:42:40.877Z,3.90
2018-11-26T14:45:11.769Z,4.00
2018-11-26T14:47:40.316Z,3.90
2018-11-26T14:50:11.915Z,3.90
2018-11-26T14:52:40.694Z,4.00
2018-11-26T14:55:24.920Z,4.00
2018-11-26T14:57:53.372Z,4.00
2018-11-26T15:00:22.075Z,4.00
2018-11-26T15:02:50.511Z,4.00
2018-11-26T15:05:18.959Z,4.00
2018-11-26T15:07:47.423Z,4.00
2018-11-26T15:10:17.876Z,4.00
2018-11-26T15:12:46.619Z,4.10
2018-11-26T15:15:19.618Z,4.00
2018-11-26T15:17:48.049Z,4.00
2018-11-26T15:20:18.529Z,4.00
2018-11-26T15:22:47.117Z,4.00
2018-11-26T15:25:17.715Z,4.10
2018-11-26T15:27:46.266Z,4.20
2018-11-26T15:30:15.945Z,4.00
2018-11-26T15:32:44.514Z,4.10
2018-11-26T15:35:15.909Z,4.00
2018-11-26T15:37:44.361Z,4.10
2018-11-26T15:40:15.717Z,4.10
2018-11-26T15:42:44.188Z,4.10
2018-11-26T15:45:14.874Z,4.00
2018-11-26T15:47:43.328Z,4.10
2018-11-26T15:50:12.258Z,4.10
2018-11-26T15:52:40.676Z,4.10
2018-11-26T15:55:11.718Z,4.00
2018-11-26T15:57:40.128Z,4.20
2018-11-26T16:00:15.616Z,4.10
2018-11-26T16:02:44.071Z,4.10
2018-11-26T16:05:13.643Z,4.10
2018-11-26T16:07:42.420Z,4.10
2018-11-26T16:10:13.076Z,4.10
2018-11-26T16:12:42.302Z,4.00
2018-11-26T16:15:14.222Z,4.00
2018-11-26T16:17:42.715Z,4.00
2018-11-26T16:20:13.577Z,4.00
2018-11-26T16:22:42.058Z,4.00
2018-11-26T16:25:11.772Z,4.00
2018-11-26T16:27:40.230Z,4.00
2018-11-26T16:30:10.577Z,4.00
2018-11-26T16:32:39.142Z,4.00
2018-11-26T16:35:10.795Z,4.00
2018-11-26T16:37:39.494Z,4.00
2018-11-26T16:40:10.463Z,4.00
2018-11-26T16:42:38.935Z,4.00
2018-11-26T16:45:09.875Z,4.00
2018-11-26T16:47:38.305Z,3.90
2018-11-26T16:50:09.064Z,3.90
2018-11-26T16:52:37.483Z,3.80
2018-11-26T16:55:08.797Z,3.70
2018-11-26T16:57:37.256Z,3.70
2018-11-26T17:00:12.749Z,3.60
2018-11-26T17:02:41.127Z,3.70
2018-11-26T17:05:11.519Z,3.60
2018-11-26T17:07:39.923Z,3.60
2018-11-26T17:10:09.361Z,3.50
2018-11-26T17:12:38.089Z,3.50
2018-11-26T17:15:15.682Z,3.50
2018-11-26T17:17:44.118Z,3.40
2018-11-26T17:20:13.605Z,3.40
2018-11-26T17:22:42.306Z,3.40
2018-11-26T17:25:11.709Z,3.40
2018-11-26T17:27:40.674Z,3.50
2018-11-26T17:30:27.433Z,3.50
2018-11-26T17:33:01.225Z,3.40
2018-11-26T17:35:30.836Z,3.40
2018-11-26T17:37:59.399Z,3.50
2018-11-26T17:40:28.279Z,3.40
2018-11-26T17:42:56.823Z,3.40
2018-11-26T17:45:26.000Z,3.30
2018-11-26T17:47:58.638Z,3.30
2018-11-26T17:50:38.226Z,3.30
2018-11-26T17:53:08.479Z,3.50
2018-11-26T17:55:46.108Z,3.50
2018-11-26T17:58:14.554Z,3.30
2018-11-26T18:00:43.898Z,3.30
2018-11-26T18:03:12.362Z,3.30
2018-11-26T18:05:40.815Z,3.40
2018-11-26T18:08:11.902Z,3.30
2018-11-26T18:10:40.375Z,3.30
2018-11-26T18:13:08.854Z,3.30
2018-11-26T18:15:37.318Z,3.30
2018-11-26T18:18:08.720Z,3.30
2018-11-26T18:20:37.177Z,3.30
2018-11-26T18:23:06.506Z,3.30
2018-11-26T18:25:34.971Z,3.30
2018-11-26T18:28:06.300Z,3.30
2018-11-26T18:30:39.362Z,3.30
2018-11-26T18:33:07.865Z,3.30
2018-11-26T18:35:36.877Z,3.20
2018-11-26T18:38:06.236Z,3.20
2018-11-26T18:40:35.507Z,3.20
2018-11-26T18:43:04.044Z,3.20
2018-11-26T18:45:32.489Z,3.20
2018-11-26T18:48:01.810Z,3.20
2018-11-26T18:50:30.255Z,3.20
2018-11-26T18:52:58.895Z,3.10
2018-11-26T18:55:27.421Z,3.10
2018-11-26T18:57:55.895Z,3.30
2018-11-26T19:00:30.734Z,3.20
2018-11-26T19:02:59.485Z,3.10
2018-11-26T19:05:27.930Z,3.00
2018-11-26T19:07:56.409Z,3.10
2018-11-26T19:10:27.370Z,3.10
2018-11-26T19:12:58.175Z,3.00
2018-11-26T19:15:32.082Z,3.00
2018-11-26T19:18:03.190Z,3.20
2018-11-26T19:20:31.628Z,3.10
2018-11-26T19:23:00.047Z,3.20
2018-11-26T19:25:28.503Z,3.10
2018-11-26T19:27:57.073Z,3.00
2018-11-26T19:30:25.649Z,3.10
2018-11-26T19:32:54.147Z,3.10
2018-11-26T19:35:22.575Z,3.00
2018-11-26T19:37:51.080Z,3.00
2018-11-26T19:40:19.504Z,3.00
2018-11-26T19:42:48.005Z,3.00
2018-11-26T19:45:18.099Z,3.10
2018-11-26T19:47:46.592Z,3.10
2018-11-26T19:50:17.076Z,3.10
2018-11-26T19:52:47.355Z,3.20
2018-11-26T19:55:24.309Z,3.10
2018-11-26T19:57:53.575Z,3.10
2018-11-26T20:00:25.263Z,3.10
2018-11-26T20:03:03.340Z,3.10
2018-11-26T20:05:37.241Z,3.10
2018-11-26T20:08:06.350Z,3.00
2018-11-26T20:10:34.913Z,3.00
2018-11-26T20:13:03.382Z,3.00
2018-11-26T20:15:31.801Z,3.10
2018-11-26T20:18:00.295Z,3.00
2018-11-26T20:20:29.242Z,3.00
2018-11-26T20:22:57.781Z,3.00
2018-11-26T20:25:26.273Z,3.00
2018-11-26T20:27:54.749Z,3.00
2018-11-26T20:30:23.351Z,3.00
2018-11-26T20:32:51.846Z,2.90
2018-11-26T20:35:20.251Z,2.90
2018-11-26T20:37:49.432Z,2.90
2018-11-26T20:40:17.973Z,2.90
2018-11-26T20:42:51.624Z,2.90
2018-11-26T20:45:21.156Z,2.90
2018-11-26T20:47:50.864Z,2.80
2018-11-26T20:50:22.639Z,2.80
2018-11-26T20:52:51.068Z,2.80
2018-11-26T20:55:20.955Z,2.70
2018-11-26T20:57:50.185Z,2.70
2018-11-26T21:00:21.457Z,2.80
2018-11-26T21:02:51.225Z,2.90
2018-11-26T21:05:19.661Z,2.90
2018-11-26T21:07:48.181Z,2.90
2018-11-26T21:10:17.062Z,2.90
2018-11-26T21:12:45.609Z,2.80
2018-11-26T21:15:16.803Z,2.80
2018-11-26T21:17:50.467Z,2.80
2018-11-26T21:20:35.522Z,2.80
2018-11-26T21:23:05.712Z,2.80
2018-11-26T21:25:34.156Z,2.80
2018-11-26T21:28:02.571Z,2.80
2018-11-26T21:30:30.995Z,2.70
2018-11-26T21:32:59.461Z,2.70
2018-11-26T21:35:27.985Z,2.80
2018-11-26T21:37:56.713Z,2.80
2018-11-26T21:40:25.887Z,2.80
2018-11-26T21:42:54.419Z,2.80
2018-11-26T21:45:28.437Z,2.70
2018-11-26T21:47:56.975Z,2.80
2018-11-26T21:50:25.454Z,2.80
2018-11-26T21:52:53.835Z,2.80
2018-11-26T21:55:22.314Z,2.80
2018-11-26T21:57:51.021Z,2.70
2018-11-26T22:00:30.285Z,2.70
2018-11-26T22:03:03.125Z,2.70
2018-11-26T22:05:31.642Z,2.70
2018-11-26T22:08:00.058Z,2.70
2018-11-26T22:10:28.479Z,2.70
2018-11-26T22:12:56.867Z,2.60
2018-11-26T22:15:25.354Z,2.70
2018-11-26T22:17:54.077Z,2.70
2018-11-26T22:20:25.864Z,2.80
2018-11-26T22:22:54.544Z,2.70
2018-11-26T22:25:22.901Z,2.70
2018-11-26T22:27:52.262Z,2.60
2018-11-26T22:30:22.831Z,2.60
2018-11-26T22:32:51.310Z,2.70
2018-11-26T22:35:19.713Z,2.60
2018-11-26T22:37:48.428Z,2.60
2018-11-26T22:40:18.782Z,2.60
2018-11-26T22:42:47.286Z,2.60
2018-11-26T22:45:18.139Z,2.60
2018-11-26T22:47:50.129Z,2.60
2018-11-26T22:50:18.544Z,2.60
2018-11-26T22:52:46.936Z,2.60
2018-11-26T22:55:15.541Z,2.60
2018-11-26T22:57:45.129Z,2.60
2018-11-26T23:00:16.125Z,2.60
2018-11-26T23:02:44.550Z,2.70
2018-11-26T23:05:13.004Z,2.70
2018-11-26T23:07:41.423Z,2.60
2018-11-26T23:10:10.182Z,2.70
2018-11-26T23:12:38.611Z,2.70
2018-11-26T23:15:11.242Z,2.60
2018-11-26T23:17:39.818Z,2.60
2018-11-26T23:20:10.302Z,2.60
2018-11-26T23:22:38.830Z,2.60
2018-11-26T23:25:08.810Z,2.70
2018-11-26T23:27:38.106Z,2.50
2018-11-26T23:30:18.246Z,2.60
2018-11-26T23:32:47.793Z,2.60
2018-11-26T23:35:16.204Z,2.60
2018-11-26T23:37:44.617Z,2.60
2018-11-26T23:40:13.502Z,2.60
2018-11-26T23:42:41.906Z,2.60
2018-11-26T23:45:12.430Z,2.60
2018-11-26T23:47:40.826Z,2.60
2018-11-26T23:50:13.121Z,2.60
2018-11-26T23:52:41.808Z,2.60
2018-11-26T23:55:11.865Z,2.60
2018-11-26T23:57:40.399Z,2.50
